Time;durP1;ratioP1;P1;durP2;ratioP2;P2;SDS_P1;SDS_P2;PMS_P1;PMS_P2;Temp;Humidity;BMP_temperature;BMP_pressure;BME280_temperature;BME280_humidity;BME280_pressure;Samples;Min_cycle;Max_cycle;Signal;HPM_P1;HPM_P2
2022/01/21 00:00:03;;;;;;;18.92;4.30;;;;;;;;;;5011392;28;20078;-67
2022/01/21 00:02:28;;;;;;;21.33;3.78;;;;;;;;;;4993943;28;20438;-67
2022/01/21 00:04:54;;;;;;;22.95;3.58;;;;;;;;;;5011185;28;20071;-66
2022/01/21 00:07:19;;;;;;;23.45;3.53;;;;;;;;;;5010788;28;20079;-66
2022/01/21 00:09:46;;;;;;;29.65;3.33;;;;;;;;;;5010743;28;20602;-66
2022/01/21 00:12:11;;;;;;;26.98;5.15;;;;;;;;;;5011539;28;20014;-66
2022/01/21 00:14:36;;;;;;;22.88;4.07;;;;;;;;;;5010571;28;20021;-66
2022/01/21 00:17:02;;;;;;;27.48;3.63;;;;;;;;;;5011118;28;20025;-66
2022/01/21 00:19:29;;;;;;;33.28;4.28;;;;;;;;;;5010517;28;20378;-67
2022/01/21 00:30:14;;;;;;;15.15;3.25;;;;;;;;;;4995147;28;20545;-68
2022/01/21 00:32:41;;;;;;;24.98;3.67;;;;;;;;;;5011171;28;20413;-67
2022/01/21 00:35:06;;;;;;;26.10;2.90;;;;;;;;;;5010820;28;20025;-68
2022/01/21 00:37:31;;;;;;;18.50;3.55;;;;;;;;;;5010127;28;20494;-68
2022/01/21 00:39:59;;;;;;;21.23;4.07;;;;;;;;;;5010360;28;20022;-68
2022/01/21 00:44:50;;;;;;;21.88;3.58;;;;;;;;;;5005070;28;20180;-68
2022/01/21 00:47:16;;;;;;;25.17;3.75;;;;;;;;;;5010445;28;20084;-68
2022/01/21 00:49:41;;;;;;;21.33;3.90;;;;;;;;;;5010298;28;20348;-68
2022/01/21 00:52:06;;;;;;;22.05;3.13;;;;;;;;;;5010077;28;20018;-68
2022/01/21 00:54:31;;;;;;;26.30;5.37;;;;;;;;;;5010554;28;20104;-67
2022/01/21 00:56:56;;;;;;;23.45;4.53;;;;;;;;;;5010259;28;20280;-68
2022/01/21 00:59:22;;;;;;;22.85;3.10;;;;;;;;;;5010144;28;20037;-67
2022/01/21 01:01:47;;;;;;;18.75;3.00;;;;;;;;;;5010517;28;20022;-67
2022/01/21 01:04:12;;;;;;;15.85;3.03;;;;;;;;;;5009873;28;20387;-67
2022/01/21 01:06:37;;;;;;;26.27;4.07;;;;;;;;;;5009925;28;20024;-68
2022/01/21 01:09:03;;;;;;;24.80;3.75;;;;;;;;;;5010319;28;20029;-68
2022/01/21 01:22:51;;;;;;;19.85;3.67;;;;;;;;;;4978859;28;20049;-67
2022/01/21 01:28:01;;;;;;;21.88;3.65;;;;;;;;;;4982806;28;20045;-67
2022/01/21 01:30:27;;;;;;;20.35;3.45;;;;;;;;;;4994461;28;20109;-67
2022/01/21 01:32:55;;;;;;;29.08;3.72;;;;;;;;;;4994555;28;20038;-67
2022/01/21 01:35:21;;;;;;;23.45;3.35;;;;;;;;;;4994241;28;20113;-67
2022/01/21 01:39:00;;;;;;;25.33;4.10;;;;;;;;;;4993063;28;20109;-67
2022/01/21 01:40:49;;;;;;;30.42;4.90;;;;;;;;;;4975248;28;20446;-67
2022/01/21 01:50:54;;;;;;;17.75;3.63;;;;;;;;;;4989366;28;20098;-67
2022/01/21 01:53:22;;;;;;;20.52;4.00;;;;;;;;;;4994193;28;20490;-67
2022/01/21 01:55:47;;;;;;;24.25;4.05;;;;;;;;;;4993988;28;20453;-67
2022/01/21 01:58:14;;;;;;;19.60;4.20;;;;;;;;;;4994032;28;20026;-68
2022/01/21 02:00:39;;;;;;;21.70;4.25;;;;;;;;;;4993246;28;20402;-67
2022/01/21 02:03:06;;;;;;;16.98;3.72;;;;;;;;;;4993664;28;20023;-67
2022/01/21 02:05:31;;;;;;;19.40;4.07;;;;;;;;;;4993941;28;20018;-67
2022/01/21 02:07:56;;;;;;;23.60;4.15;;;;;;;;;;4993686;28;20348;-67
2022/01/21 02:10:21;;;;;;;28.23;6.00;;;;;;;;;;4993385;28;20391;-67
2022/01/21 02:12:47;;;;;;;25.88;3.80;;;;;;;;;;4994017;28;20505;-67
2022/01/21 02:15:12;;;;;;;25.23;4.07;;;;;;;;;;4993580;28;20049;-67
2022/01/21 02:22:49;;;;;;;24.52;4.05;;;;;;;;;;4988578;28;20490;-67
2022/01/21 02:25:18;;;;;;;24.52;3.92;;;;;;;;;;4991691;28;20133;-67
2022/01/21 02:27:59;;;;;;;18.58;3.83;;;;;;;;;;4993791;28;20423;-67
2022/01/21 02:30:24;;;;;;;19.15;3.83;;;;;;;;;;4993531;28;20042;-67
2022/01/21 02:32:55;;;;;;;21.95;3.85;;;;;;;;;;4993325;28;20026;-67
2022/01/21 02:35:21;;;;;;;25.00;4.60;;;;;;;;;;4992791;28;20037;-67
2022/01/21 02:37:46;;;;;;;26.38;4.22;;;;;;;;;;4991911;28;20027;-67
2022/01/21 02:40:13;;;;;;;29.08;5.25;;;;;;;;;;4992900;28;20026;-67
2022/01/21 02:42:39;;;;;;;22.90;4.07;;;;;;;;;;4993379;28;20030;-67
2022/01/21 02:45:05;;;;;;;19.45;3.03;;;;;;;;;;4993111;28;20037;-67
2022/01/21 02:47:30;;;;;;;24.15;4.07;;;;;;;;;;4992938;28;20084;-67
2022/01/21 02:49:55;;;;;;;21.73;3.10;;;;;;;;;;4992864;28;20022;-67
2022/01/21 02:52:24;;;;;;;17.08;3.30;;;;;;;;;;4989865;28;20434;-67
2022/01/21 02:54:49;;;;;;;20.98;3.38;;;;;;;;;;4993464;28;20026;-67
2022/01/21 02:57:15;;;;;;;15.93;3.15;;;;;;;;;;4993275;28;20022;-67
2022/01/21 02:59:40;;;;;;;26.98;4.00;;;;;;;;;;4992637;28;20049;-67
2022/01/21 03:02:05;;;;;;;20.77;3.08;;;;;;;;;;4992661;28;20106;-67
2022/01/21 03:04:40;;;;;;;25.00;3.08;;;;;;;;;;4993261;28;20482;-67
2022/01/21 03:07:06;;;;;;;32.20;3.70;;;;;;;;;;4992287;28;20019;-66
2022/01/21 03:09:31;;;;;;;21.63;3.08;;;;;;;;;;4986832;28;20025;-66
2022/01/21 03:11:56;;;;;;;32.40;4.00;;;;;;;;;;4990939;28;20781;-67
2022/01/21 03:14:21;;;;;;;34.22;4.78;;;;;;;;;;4993038;28;20026;-67
2022/01/21 03:16:47;;;;;;;22.17;3.85;;;;;;;;;;4992492;28;20030;-67
2022/01/21 03:19:12;;;;;;;24.05;4.13;;;;;;;;;;4992313;28;20169;-67
2022/01/21 03:21:37;;;;;;;17.23;3.35;;;;;;;;;;4992193;28;20018;-67
2022/01/21 03:24:03;;;;;;;19.10;3.70;;;;;;;;;;4991613;28;20363;-67
2022/01/21 03:26:28;;;;;;;25.42;4.07;;;;;;;;;;4992310;28;20031;-66
2022/01/21 03:28:55;;;;;;;21.85;3.28;;;;;;;;;;4991989;28;20022;-66
2022/01/21 03:31:20;;;;;;;30.73;5.18;;;;;;;;;;4990489;28;20098;-67
2022/01/21 03:33:46;;;;;;;23.48;3.92;;;;;;;;;;4991452;28;20030;-67
2022/01/21 03:36:11;;;;;;;36.10;4.05;;;;;;;;;;4991928;28;20027;-67
2022/01/21 03:38:37;;;;;;;22.20;4.70;;;;;;;;;;4991844;28;20073;-67
2022/01/21 03:41:02;;;;;;;20.83;4.15;;;;;;;;;;4989986;28;20117;-66
2022/01/21 03:43:28;;;;;;;22.98;3.17;;;;;;;;;;4989197;28;20034;-66
2022/01/21 03:45:53;;;;;;;29.42;4.22;;;;;;;;;;4991845;28;20038;-66
2022/01/21 03:48:19;;;;;;;21.42;3.90;;;;;;;;;;4991895;28;20108;-66
2022/01/21 03:50:44;;;;;;;25.50;3.88;;;;;;;;;;4991235;28;20434;-66
2022/01/21 03:53:10;;;;;;;19.08;3.88;;;;;;;;;;4992502;28;20026;-66
2022/01/21 03:55:36;;;;;;;19.42;3.42;;;;;;;;;;4991629;28;20030;-66
2022/01/21 03:58:02;;;;;;;21.27;5.05;;;;;;;;;;4991479;28;20033;-67
2022/01/21 04:00:29;;;;;;;19.65;3.38;;;;;;;;;;4989391;28;20018;-66
2022/01/21 04:02:54;;;;;;;14.45;3.15;;;;;;;;;;4985310;28;20462;-66
2022/01/21 04:05:20;;;;;;;23.42;5.13;;;;;;;;;;4991946;28;20048;-67
2022/01/21 04:07:45;;;;;;;22.10;3.72;;;;;;;;;;4990584;28;20051;-66
2022/01/21 04:10:11;;;;;;;19.27;3.58;;;;;;;;;;4991573;28;20026;-66
2022/01/21 04:12:36;;;;;;;26.23;3.75;;;;;;;;;;4991173;28;20026;-66
2022/01/21 04:15:01;;;;;;;21.38;3.78;;;;;;;;;;4988597;28;20026;-66
2022/01/21 04:17:27;;;;;;;30.70;3.88;;;;;;;;;;4990519;28;20495;-67
2022/01/21 04:19:52;;;;;;;23.40;4.15;;;;;;;;;;4991015;28;20030;-66
2022/01/21 04:22:17;;;;;;;33.25;4.53;;;;;;;;;;4991283;28;20015;-66
2022/01/21 04:24:45;;;;;;;29.10;4.72;;;;;;;;;;4991511;28;20466;-66
2022/01/21 04:27:10;;;;;;;25.23;4.45;;;;;;;;;;4990983;28;20390;-66
2022/01/21 04:29:36;;;;;;;21.17;4.05;;;;;;;;;;4990331;28;20022;-67
2022/01/21 04:32:01;;;;;;;20.80;3.95;;;;;;;;;;4987637;28;20027;-67
2022/01/21 04:34:26;;;;;;;29.42;4.80;;;;;;;;;;4990728;28;20022;-66
2022/01/21 04:36:51;;;;;;;30.83;4.68;;;;;;;;;;4990608;28;20018;-67
2022/01/21 04:39:23;;;;;;;18.42;3.45;;;;;;;;;;4990890;28;20120;-66
2022/01/21 04:49:38;;;;;;;18.48;3.53;;;;;;;;;;4987761;28;20037;-67
2022/01/21 04:52:03;;;;;;;26.77;3.95;;;;;;;;;;4990219;28;20026;-67
2022/01/21 04:54:32;;;;;;;21.90;4.30;;;;;;;;;;4990887;28;20336;-67
2022/01/21 04:56:58;;;;;;;21.05;4.32;;;;;;;;;;4990837;28;20036;-67
2022/01/21 04:59:23;;;;;;;28.83;4.85;;;;;;;;;;4990908;28;20406;-67
2022/01/21 05:01:48;;;;;;;29.25;4.30;;;;;;;;;;4989766;28;20022;-67
2022/01/21 05:04:13;;;;;;;23.77;4.72;;;;;;;;;;4977451;28;20364;-67
2022/01/21 05:06:40;;;;;;;14.45;3.75;;;;;;;;;;4991019;28;20554;-67
2022/01/21 05:09:06;;;;;;;36.58;4.70;;;;;;;;;;4990686;28;20544;-67
2022/01/21 05:11:35;;;;;;;18.05;4.30;;;;;;;;;;4999580;28;20061;-67
2022/01/21 05:14:13;;;;;;;18.25;3.75;;;;;;;;;;4988567;28;20031;-67
2022/01/21 05:16:44;;;;;;;31.92;4.85;;;;;;;;;;4988324;28;20045;-67
2022/01/21 05:19:15;;;;;;;29.20;4.95;;;;;;;;;;4988436;28;20079;-67
2022/01/21 05:21:40;;;;;;;23.50;4.30;;;;;;;;;;4984442;28;20033;-67
2022/01/21 05:24:06;;;;;;;27.05;3.97;;;;;;;;;;4989162;28;20018;-67
2022/01/21 05:26:36;;;;;;;25.90;4.72;;;;;;;;;;4988986;28;20054;-67
2022/01/21 05:29:02;;;;;;;33.20;4.75;;;;;;;;;;4988082;28;20046;-67
2022/01/21 05:31:28;;;;;;;25.98;4.80;;;;;;;;;;4988039;28;20483;-67
2022/01/21 05:33:53;;;;;;;21.60;6.20;;;;;;;;;;4988821;28;20034;-67
2022/01/21 05:36:18;;;;;;;26.50;4.80;;;;;;;;;;4988280;28;20285;-67
2022/01/21 05:38:43;;;;;;;27.03;3.97;;;;;;;;;;4988322;28;20076;-67
2022/01/21 05:41:08;;;;;;;28.07;5.47;;;;;;;;;;4988461;28;20265;-67
2022/01/21 05:43:34;;;;;;;30.13;5.30;;;;;;;;;;4987273;28;20265;-67
2022/01/21 05:48:54;;;;;;;21.05;5.43;;;;;;;;;;4979228;28;20097;-67
2022/01/21 05:51:20;;;;;;;28.35;5.30;;;;;;;;;;4988463;28;20470;-67
2022/01/21 05:53:45;;;;;;;22.25;4.55;;;;;;;;;;4984794;28;20070;-67
2022/01/21 05:56:11;;;;;;;27.15;4.53;;;;;;;;;;4986546;28;20113;-67
2022/01/21 05:58:37;;;;;;;21.50;4.68;;;;;;;;;;4987598;28;20022;-67
2022/01/21 06:01:02;;;;;;;28.33;4.38;;;;;;;;;;4991536;28;20029;-67
2022/01/21 06:03:27;;;;;;;25.05;5.32;;;;;;;;;;4988976;28;20030;-67
2022/01/21 06:05:52;;;;;;;35.92;5.45;;;;;;;;;;4987619;28;20018;-67
2022/01/21 06:08:18;;;;;;;16.02;4.32;;;;;;;;;;4988059;28;20076;-67
2022/01/21 06:10:43;;;;;;;23.42;6.10;;;;;;;;;;4987919;28;20065;-67
2022/01/21 06:13:08;;;;;;;28.48;5.72;;;;;;;;;;4989402;28;20633;-67
2022/01/21 06:15:34;;;;;;;26.98;4.82;;;;;;;;;;4989877;28;20061;-67
2022/01/21 06:17:59;;;;;;;18.65;4.72;;;;;;;;;;4986377;28;20014;-67
2022/01/21 06:20:25;;;;;;;20.20;4.80;;;;;;;;;;4991565;28;20030;-67
2022/01/21 06:22:50;;;;;;;31.40;4.93;;;;;;;;;;4990954;28;20372;-67
2022/01/21 06:25:15;;;;;;;23.10;5.38;;;;;;;;;;4991116;28;20257;-67
2022/01/21 06:27:40;;;;;;;26.25;5.72;;;;;;;;;;4995454;28;20034;-67
2022/01/21 06:30:07;;;;;;;19.13;4.78;;;;;;;;;;4994820;28;20018;-67
2022/01/21 06:32:32;;;;;;;26.98;5.70;;;;;;;;;;4991344;28;20026;-67
2022/01/21 06:34:57;;;;;;;26.00;6.07;;;;;;;;;;4983737;28;20157;-67
2022/01/21 06:37:23;;;;;;;25.33;5.25;;;;;;;;;;4993076;28;20030;-67
2022/01/21 06:39:48;;;;;;;29.60;6.07;;;;;;;;;;4992299;28;20363;-67
2022/01/21 06:42:14;;;;;;;27.88;6.28;;;;;;;;;;4993209;28;20049;-67
2022/01/21 06:44:39;;;;;;;21.23;4.75;;;;;;;;;;4991984;28;20026;-67
2022/01/21 06:47:04;;;;;;;23.77;4.93;;;;;;;;;;4992020;28;20026;-67
2022/01/21 06:49:30;;;;;;;29.63;5.03;;;;;;;;;;4990360;28;20155;-67
2022/01/21 06:51:55;;;;;;;31.92;4.57;;;;;;;;;;4991510;28;20030;-67
2022/01/21 06:54:20;;;;;;;18.80;6.13;;;;;;;;;;4988635;28;20030;-67
2022/01/21 06:56:45;;;;;;;23.30;4.63;;;;;;;;;;4981547;28;20077;-67
2022/01/21 06:59:11;;;;;;;23.67;5.75;;;;;;;;;;4987194;28;20062;-67
2022/01/21 07:01:36;;;;;;;23.38;5.32;;;;;;;;;;4985377;28;20014;-67
2022/01/21 07:04:01;;;;;;;25.45;5.72;;;;;;;;;;4991946;28;20060;-67
2022/01/21 07:06:27;;;;;;;26.23;5.85;;;;;;;;;;4991150;28;20105;-67
2022/01/21 07:08:52;;;;;;;25.85;4.55;;;;;;;;;;4991980;28;20034;-67
2022/01/21 07:11:20;;;;;;;21.15;4.18;;;;;;;;;;4999518;23;20042;-87
2022/01/21 07:13:46;;;;;;;34.92;5.43;;;;;;;;;;4990799;28;20030;-86
2022/01/21 07:16:28;;;;;;;;;;;;;;;;;;;;;
2022/01/21 07:18:53;;;;;;;20.55;4.93;;;;;;;;;;5036784;23;20038;-66
2022/01/21 07:21:18;;;;;;;26.17;4.22;;;;;;;;;;5028204;28;20034;-66
2022/01/21 07:23:43;;;;;;;27.83;4.80;;;;;;;;;;5015317;28;20025;-65
2022/01/21 07:26:09;;;;;;;26.02;7.68;;;;;;;;;;5018368;28;20018;-65
2022/01/21 07:28:34;;;;;;;27.25;4.90;;;;;;;;;;5017111;28;20030;-65
2022/01/21 07:30:59;;;;;;;37.53;5.55;;;;;;;;;;5015858;28;20017;-65
2022/01/21 07:33:25;;;;;;;29.92;4.50;;;;;;;;;;5012064;28;20084;-64
2022/01/21 07:35:50;;;;;;;24.25;4.78;;;;;;;;;;5011155;28;20026;-65
2022/01/21 07:38:15;;;;;;;27.83;5.72;;;;;;;;;;5011436;28;20110;-65
2022/01/21 07:40:40;;;;;;;40.63;5.25;;;;;;;;;;5011455;28;20410;-66
2022/01/21 07:43:06;;;;;;;25.90;5.78;;;;;;;;;;5009169;28;20022;-66
2022/01/21 07:45:32;;;;;;;19.88;4.55;;;;;;;;;;5010943;28;20096;-66
2022/01/21 07:47:57;;;;;;;20.80;4.78;;;;;;;;;;5005352;28;20124;-67
2022/01/21 07:50:23;;;;;;;23.33;4.32;;;;;;;;;;5004408;28;20041;-65
2022/01/21 07:52:48;;;;;;;13.55;4.50;;;;;;;;;;5007302;28;20029;-66
2022/01/21 07:55:13;;;;;;;32.42;6.60;;;;;;;;;;5006820;28;20050;-65
2022/01/21 07:57:39;;;;;;;28.63;5.68;;;;;;;;;;5004006;28;20017;-66
2022/01/21 08:00:05;;;;;;;34.67;6.82;;;;;;;;;;5011162;28;20064;-66
2022/01/21 08:02:31;;;;;;;27.48;5.88;;;;;;;;;;5010850;28;20024;-66
2022/01/21 08:04:57;;;;;;;24.60;5.00;;;;;;;;;;5006361;28;20021;-65
2022/01/21 08:07:22;;;;;;;26.65;4.57;;;;;;;;;;5015172;28;20022;-66
2022/01/21 08:09:49;;;;;;;26.50;5.55;;;;;;;;;;5015120;28;20405;-66
2022/01/21 08:12:16;;;;;;;27.45;5.47;;;;;;;;;;5006404;28;20037;-66
2022/01/21 08:14:41;;;;;;;16.90;5.35;;;;;;;;;;5004292;28;20026;-65
2022/01/21 08:17:07;;;;;;;31.30;5.32;;;;;;;;;;5007030;28;20044;-66
2022/01/21 08:19:32;;;;;;;26.73;5.35;;;;;;;;;;5007546;28;20066;-66
2022/01/21 08:21:57;;;;;;;22.20;5.10;;;;;;;;;;5009732;28;20029;-66
2022/01/21 08:24:22;;;;;;;31.92;8.02;;;;;;;;;;5009259;28;20021;-66
2022/01/21 08:26:47;;;;;;;22.48;4.10;;;;;;;;;;5007649;28;20026;-65
2022/01/21 08:29:13;;;;;;;28.85;5.57;;;;;;;;;;5013934;28;20046;-66
2022/01/21 08:31:39;;;;;;;36.83;5.13;;;;;;;;;;5009267;28;20025;-66
2022/01/21 08:34:04;;;;;;;34.60;6.13;;;;;;;;;;5008165;28;20021;-65
2022/01/21 08:36:29;;;;;;;26.40;6.43;;;;;;;;;;5009956;28;20026;-65
2022/01/21 08:38:54;;;;;;;31.80;5.40;;;;;;;;;;5012646;28;20026;-65
2022/01/21 08:41:19;;;;;;;19.77;5.07;;;;;;;;;;5009512;28;20498;-66
2022/01/21 08:43:45;;;;;;;25.48;6.05;;;;;;;;;;5008353;28;20037;-65
2022/01/21 08:46:10;;;;;;;25.20;4.88;;;;;;;;;;5008280;28;20057;-66
2022/01/21 08:48:36;;;;;;;26.05;4.85;;;;;;;;;;5009007;28;20021;-66
2022/01/21 08:51:08;;;;;;;18.42;4.93;;;;;;;;;;5007552;28;20029;-66
2022/01/21 08:53:36;;;;;;;25.80;5.55;;;;;;;;;;5010992;28;20106;-66
2022/01/21 08:56:02;;;;;;;23.10;5.50;;;;;;;;;;5009775;28;22024;-64
2022/01/21 08:58:27;;;;;;;20.42;5.00;;;;;;;;;;5009941;28;20054;-65
2022/01/21 09:00:53;;;;;;;34.25;5.82;;;;;;;;;;5009486;28;20056;-65
2022/01/21 09:03:18;;;;;;;25.88;4.88;;;;;;;;;;5010094;28;20026;-65
2022/01/21 09:05:48;;;;;;;35.25;5.75;;;;;;;;;;5006586;28;20017;-66
2022/01/21 09:08:14;;;;;;;21.23;5.22;;;;;;;;;;5003267;28;20033;-66
2022/01/21 09:10:39;;;;;;;23.83;5.40;;;;;;;;;;5006561;28;20026;-66
2022/01/21 09:13:04;;;;;;;21.77;4.85;;;;;;;;;;5002377;28;20018;-65
2022/01/21 09:15:31;;;;;;;24.90;5.85;;;;;;;;;;5006576;28;20050;-65
2022/01/21 09:18:02;;;;;;;21.58;7.35;;;;;;;;;;5007718;28;20017;-66
2022/01/21 09:20:28;;;;;;;19.77;5.63;;;;;;;;;;5009524;28;20037;-66
2022/01/21 09:22:53;;;;;;;24.60;5.90;;;;;;;;;;5009614;28;20018;-66
2022/01/21 09:25:18;;;;;;;25.70;5.68;;;;;;;;;;5006704;28;20036;-65
2022/01/21 09:27:43;;;;;;;21.10;5.60;;;;;;;;;;5009332;28;20389;-66
2022/01/21 09:30:09;;;;;;;18.37;4.40;;;;;;;;;;5009285;28;20092;-66
2022/01/21 09:32:35;;;;;;;17.60;6.40;;;;;;;;;;5009868;28;20276;-65
2022/01/21 09:35:00;;;;;;;25.83;4.88;;;;;;;;;;5009026;28;20021;-65
2022/01/21 09:37:25;;;;;;;23.33;5.10;;;;;;;;;;5008565;28;20354;-65
2022/01/21 09:39:50;;;;;;;28.52;5.05;;;;;;;;;;5010048;28;20026;-65
2022/01/21 09:42:16;;;;;;;10.88;4.47;;;;;;;;;;5008041;28;20018;-66
2022/01/21 09:44:44;;;;;;;17.67;4.50;;;;;;;;;;5002338;28;20397;-66
2022/01/21 09:47:11;;;;;;;25.35;5.07;;;;;;;;;;5007356;28;20035;-64
2022/01/21 09:49:40;;;;;;;20.20;4.60;;;;;;;;;;5013294;28;20018;-66
2022/01/21 09:52:07;;;;;;;18.80;6.20;;;;;;;;;;5013117;28;20025;-67
2022/01/21 09:54:33;;;;;;;24.40;4.78;;;;;;;;;;5013900;28;20532;-65
2022/01/21 09:56:59;;;;;;;32.35;6.20;;;;;;;;;;5013765;28;20100;-66
2022/01/21 09:59:26;;;;;;;22.10;4.80;;;;;;;;;;5012632;28;20112;-65
2022/01/21 10:01:52;;;;;;;26.83;5.10;;;;;;;;;;5013212;28;20073;-65
2022/01/21 10:04:19;;;;;;;21.05;5.63;;;;;;;;;;5013621;28;20394;-66
2022/01/21 10:06:46;;;;;;;21.98;4.95;;;;;;;;;;5013065;28;20098;-66
2022/01/21 10:09:11;;;;;;;21.17;4.72;;;;;;;;;;5012910;28;20021;-65
2022/01/21 10:11:36;;;;;;;14.68;5.13;;;;;;;;;;5014269;28;20025;-65
2022/01/21 10:14:01;;;;;;;30.67;5.55;;;;;;;;;;5012949;28;20029;-66
2022/01/21 10:16:27;;;;;;;20.80;5.93;;;;;;;;;;5012739;28;20034;-66
2022/01/21 10:19:03;;;;;;;18.52;5.13;;;;;;;;;;5015743;28;20105;-65
2022/01/21 10:21:29;;;;;;;23.58;5.07;;;;;;;;;;5007234;28;20021;-66
2022/01/21 10:24:02;;;;;;;21.77;5.32;;;;;;;;;;5012506;28;20010;-65
2022/01/21 10:26:27;;;;;;;23.55;6.43;;;;;;;;;;5008252;28;20030;-65
2022/01/21 10:28:55;;;;;;;17.37;6.00;;;;;;;;;;5008110;28;20514;-65
2022/01/21 10:31:20;;;;;;;23.70;6.15;;;;;;;;;;5013013;28;20287;-65
2022/01/21 10:33:47;;;;;;;25.75;5.68;;;;;;;;;;5015659;28;20026;-66
2022/01/21 10:36:23;;;;;;;20.05;6.00;;;;;;;;;;5012989;28;20022;-66
2022/01/21 10:38:50;;;;;;;23.45;5.93;;;;;;;;;;5011897;28;20105;-65
2022/01/21 10:41:16;;;;;;;16.25;7.15;;;;;;;;;;5011460;28;20026;-65
2022/01/21 10:43:42;;;;;;;24.55;6.00;;;;;;;;;;5012614;28;20017;-65
2022/01/21 10:46:08;;;;;;;24.05;5.22;;;;;;;;;;5013123;28;20060;-66
2022/01/21 10:48:52;;;;;;;26.40;6.00;;;;;;;;;;5012181;28;20034;-64
2022/01/21 10:51:18;;;;;;;26.52;6.38;;;;;;;;;;5011851;28;20026;-66
2022/01/21 10:53:43;;;;;;;25.35;6.78;;;;;;;;;;5012704;28;20029;-66
2022/01/21 10:56:13;;;;;;;19.75;5.45;;;;;;;;;;5015644;28;20116;-65
2022/01/21 10:58:39;;;;;;;21.75;5.35;;;;;;;;;;5011171;28;20017;-65
2022/01/21 11:01:10;;;;;;;23.80;6.85;;;;;;;;;;5011298;28;20037;-65
2022/01/21 11:03:38;;;;;;;28.45;5.80;;;;;;;;;;5009997;28;20025;-66
2022/01/21 11:06:10;;;;;;;24.23;6.15;;;;;;;;;;5017222;28;20026;-65
2022/01/21 11:08:35;;;;;;;19.08;4.95;;;;;;;;;;5009343;28;20408;-66
2022/01/21 11:11:02;;;;;;;21.38;5.20;;;;;;;;;;5011308;28;20218;-65
2022/01/21 11:13:28;;;;;;;18.88;6.25;;;;;;;;;;5010607;28;20033;-65
2022/01/21 11:15:56;;;;;;;23.45;7.22;;;;;;;;;;5006884;28;20027;-64
2022/01/21 11:18:22;;;;;;;17.08;5.50;;;;;;;;;;5018542;28;20092;-65
2022/01/21 11:20:49;;;;;;;20.42;6.45;;;;;;;;;;5011947;28;20359;-65
2022/01/21 11:23:16;;;;;;;24.58;6.35;;;;;;;;;;5011580;28;20079;-65
2022/01/21 11:25:46;;;;;;;26.05;6.68;;;;;;;;;;5011374;28;20550;-65
2022/01/21 11:28:14;;;;;;;22.58;7.38;;;;;;;;;;5011756;28;20131;-65
2022/01/21 11:30:40;;;;;;;21.83;5.68;;;;;;;;;;5012588;28;20100;-66
2022/01/21 11:33:05;;;;;;;24.48;6.47;;;;;;;;;;5006306;28;20474;-65
2022/01/21 11:35:30;;;;;;;28.40;5.63;;;;;;;;;;5011543;28;20109;-65
2022/01/21 11:37:57;;;;;;;21.52;4.85;;;;;;;;;;5011226;28;20036;-66
2022/01/21 11:40:22;;;;;;;14.20;4.95;;;;;;;;;;5011184;28;20064;-65
2022/01/21 11:42:47;;;;;;;24.40;6.40;;;;;;;;;;5011170;28;20030;-66
2022/01/21 11:50:41;;;;;;;30.50;7.13;;;;;;;;;;4992983;28;20041;-66
2022/01/21 11:53:07;;;;;;;25.52;6.70;;;;;;;;;;5010815;28;20072;-65
2022/01/21 11:55:33;;;;;;;23.15;5.88;;;;;;;;;;5018556;28;20039;-66
2022/01/21 11:58:09;;;;;;;28.75;6.10;;;;;;;;;;5019496;28;20022;-66
2022/01/21 12:00:35;;;;;;;27.17;5.90;;;;;;;;;;5016155;28;20109;-65
2022/01/21 12:03:00;;;;;;;18.17;5.85;;;;;;;;;;5008643;28;20093;-66
2022/01/21 12:05:26;;;;;;;22.90;6.27;;;;;;;;;;5011634;28;20113;-66
2022/01/21 12:07:51;;;;;;;20.45;5.60;;;;;;;;;;5010191;28;20756;-66
2022/01/21 12:10:23;;;;;;;28.35;6.63;;;;;;;;;;5010435;28;20018;-65
2022/01/21 12:13:02;;;;;;;23.02;6.43;;;;;;;;;;5022311;28;20036;-65
2022/01/21 12:15:35;;;;;;;20.13;6.43;;;;;;;;;;5004889;28;20041;-66
2022/01/21 12:18:16;;;;;;;26.65;8.52;;;;;;;;;;5010446;28;20060;-66
2022/01/21 12:20:42;;;;;;;33.13;6.80;;;;;;;;;;5011155;28;20034;-65
2022/01/21 12:23:12;;;;;;;25.88;6.40;;;;;;;;;;5011556;28;20536;-65
2022/01/21 12:25:56;;;;;;;18.70;6.05;;;;;;;;;;5015561;28;20022;-65
2022/01/21 12:28:22;;;;;;;20.73;6.68;;;;;;;;;;5010545;28;20022;-66
2022/01/21 12:30:53;;;;;;;25.10;6.95;;;;;;;;;;5009755;28;20018;-65
2022/01/21 12:33:18;;;;;;;38.42;7.70;;;;;;;;;;5009697;28;20104;-65
2022/01/21 12:35:45;;;;;;;18.00;7.32;;;;;;;;;;5010528;28;20093;-65
2022/01/21 12:40:54;;;;;;;18.80;7.68;;;;;;;;;;5009501;28;20072;-64
2022/01/21 12:43:37;;;;;;;19.27;6.45;;;;;;;;;;5018675;28;20037;-65
2022/01/21 12:46:04;;;;;;;34.83;5.88;;;;;;;;;;5006281;28;20481;-66
2022/01/21 12:48:35;;;;;;;15.55;5.82;;;;;;;;;;5009842;28;20486;-66
2022/01/21 12:51:13;;;;;;;22.15;6.30;;;;;;;;;;5010308;28;20373;-65
2022/01/21 12:55:54;;;;;;;17.42;5.07;;;;;;;;;;5010419;28;20097;-64
2022/01/21 12:56:23;;;;;;;22.73;5.18;;;;;;;;;;5010163;28;20037;-66
2022/01/21 12:58:49;;;;;;;25.83;6.57;;;;;;;;;;5010250;28;20030;-65
2022/01/21 13:01:15;;;;;;;26.33;6.65;;;;;;;;;;5009874;28;20088;-65
2022/01/21 13:03:46;;;;;;;19.90;5.30;;;;;;;;;;5025159;28;20010;-65
2022/01/21 13:06:19;;;;;;;21.77;6.20;;;;;;;;;;5010407;28;20117;-66
2022/01/21 13:09:06;;;;;;;25.27;7.22;;;;;;;;;;5013666;28;20049;-66
2022/01/21 13:11:33;;;;;;;19.75;6.13;;;;;;;;;;5010041;28;20026;-66
2022/01/21 13:14:24;;;;;;;28.20;6.25;;;;;;;;;;5008838;28;20521;-66
2022/01/21 13:16:55;;;;;;;22.33;5.22;;;;;;;;;;5010017;28;20040;-66
2022/01/21 13:19:20;;;;;;;20.48;5.40;;;;;;;;;;5008674;28;20394;-65
2022/01/21 13:21:46;;;;;;;16.35;5.70;;;;;;;;;;5009524;28;20022;-65
2022/01/21 13:24:34;;;;;;;17.30;5.25;;;;;;;;;;5014041;28;20033;-66
2022/01/21 13:26:58;;;;;;;23.73;6.30;;;;;;;;;;5014364;28;20037;-65
2022/01/21 13:29:34;;;;;;;16.20;5.63;;;;;;;;;;5014011;28;20017;-65
2022/01/21 13:32:00;;;;;;;19.35;7.05;;;;;;;;;;5014324;28;20030;-64
2022/01/21 13:34:28;;;;;;;21.52;7.05;;;;;;;;;;5013670;28;20044;-65
2022/01/21 13:37:00;;;;;;;25.50;6.68;;;;;;;;;;5013701;28;20018;-63
2022/01/21 13:39:25;;;;;;;26.65;6.22;;;;;;;;;;5014464;28;20018;-64
2022/01/21 13:41:50;;;;;;;22.45;6.55;;;;;;;;;;5013815;28;20021;-65
2022/01/21 13:44:34;;;;;;;17.63;5.68;;;;;;;;;;5013627;28;20355;-64
2022/01/21 13:47:00;;;;;;;21.20;5.97;;;;;;;;;;5014022;28;20390;-65
2022/01/21 13:49:26;;;;;;;24.60;5.63;;;;;;;;;;5013393;28;20030;-65
2022/01/21 13:52:02;;;;;;;27.38;7.72;;;;;;;;;;5027564;23;20050;-66
2022/01/21 13:54:29;;;;;;;24.25;7.30;;;;;;;;;;5012513;28;20101;-65
2022/01/21 13:56:54;;;;;;;31.60;6.68;;;;;;;;;;5012950;28;20022;-66
2022/01/21 13:59:19;;;;;;;18.23;6.50;;;;;;;;;;5011960;28;20030;-65
2022/01/21 14:01:44;;;;;;;24.13;6.20;;;;;;;;;;5012731;28;20099;-64
2022/01/21 14:04:09;;;;;;;24.58;6.45;;;;;;;;;;5012603;28;20021;-65
2022/01/21 14:06:35;;;;;;;26.17;7.07;;;;;;;;;;5012797;28;20524;-65
2022/01/21 14:09:01;;;;;;;25.13;6.82;;;;;;;;;;5012227;28;20081;-65
2022/01/21 14:11:52;;;;;;;26.27;6.97;;;;;;;;;;5011697;28;20032;-65
2022/01/21 14:14:17;;;;;;;;;;;;;;;;;;5009680;28;20422;-65
2022/01/21 14:16:47;;;;;;;20.42;7.05;;;;;;;;;;5012247;28;20266;-66
2022/01/21 14:19:18;;;;;;;20.98;9.10;;;;;;;;;;5002475;28;20202;-65
2022/01/21 14:21:47;;;;;;;25.00;8.85;;;;;;;;;;5011782;28;20041;-65
2022/01/21 14:24:20;;;;;;;34.40;8.80;;;;;;;;;;5012664;28;20089;-65
2022/01/21 14:26:59;;;;;;;28.02;7.88;;;;;;;;;;5012187;28;20026;-65
2022/01/21 14:29:30;;;;;;;26.00;9.15;;;;;;;;;;5009545;28;20080;-65
2022/01/21 14:32:00;;;;;;;35.30;8.32;;;;;;;;;;5009735;28;20030;-68
2022/01/21 14:34:27;;;;;;;37.28;7.90;;;;;;;;;;5008007;28;20022;-66
2022/01/21 14:36:59;;;;;;;39.60;11.40;;;;;;;;;;5006819;28;20092;-66
2022/01/21 14:39:25;;;;;;;27.17;8.35;;;;;;;;;;5012320;28;20034;-66
2022/01/21 14:41:51;;;;;;;24.08;9.20;;;;;;;;;;5009796;28;20010;-66
2022/01/21 14:44:17;;;;;;;26.30;8.52;;;;;;;;;;5007784;28;20028;-65
2022/01/21 14:46:43;;;;;;;31.55;10.43;;;;;;;;;;5002175;28;20067;-66
2022/01/21 14:49:09;;;;;;;30.08;11.05;;;;;;;;;;5005052;28;20088;-66
2022/01/21 14:51:48;;;;;;;27.73;11.70;;;;;;;;;;5010670;28;20081;-67
2022/01/21 14:54:17;;;;;;;33.83;10.40;;;;;;;;;;5011485;28;20390;-66
2022/01/21 14:56:55;;;;;;;36.30;13.10;;;;;;;;;;5010627;28;20348;-66
2022/01/21 14:59:20;;;;;;;34.75;11.45;;;;;;;;;;5010475;28;20025;-67
2022/01/21 15:02:04;;;;;;;36.88;14.40;;;;;;;;;;5011264;28;20733;-66
2022/01/21 15:04:35;;;;;;;35.72;13.10;;;;;;;;;;5004248;28;20065;-66
2022/01/21 15:07:23;;;;;;;40.00;14.98;;;;;;;;;;5010525;28;20021;-66
2022/01/21 15:09:50;;;;;;;35.65;16.20;;;;;;;;;;5009985;28;20026;-66
2022/01/21 15:15:31;;;;;;;44.55;17.52;;;;;;;;;;5005309;28;20108;-66
2022/01/21 15:17:56;;;;;;;39.00;15.95;;;;;;;;;;5006368;28;20475;-67
2022/01/21 15:20:31;;;;;;;37.58;15.52;;;;;;;;;;5011331;28;20048;-66
2022/01/21 15:22:57;;;;;;;51.88;17.15;;;;;;;;;;5011027;28;20285;-66
2022/01/21 15:25:22;;;;;;;46.97;18.02;;;;;;;;;;5010955;28;20018;-66
2022/01/21 15:27:47;;;;;;;49.20;17.80;;;;;;;;;;5004731;28;20026;-66
2022/01/21 15:30:12;;;;;;;36.53;16.38;;;;;;;;;;5010794;28;20276;-66